BBC Bangkok — V2EP9 — position and weather

sailwx.info

Track history (hours):
 
Tides and Currents Weather Stations Pressure Air Temp Water Temp Dewpoint Dewpoint Depression Visibility Wind Speed Wind Dir Waves Ship Positions

BBC Bangkok

Last reported at 2017-Nov-09 07:24 UTC. Time now 2017-Nov-18 15:27 UTC.
Position N 36°09' E 014°46'.
Warning: this ship's position is 9 days out of date.

Length 128 m; draft 6.1 m.

Type: Cargo ship. MMSI: 305512000.

Date/timePositionNaut miles runAvg speedWind from/ knotsBaromVisibWave heightAir tempDewpointWater temp
2017-Nov-09 07:24N 36°09' E 014°46'511.6
2017-Nov-09 07:00N 36°10' E 014°41'611.7
2017-Nov-09 06:30N 36°12' E 014°34'611.7
2017-Nov-09 06:00N 36°14' E 014°27'611.8
2017-Nov-09 05:30N 36°15' E 014°20'611.7
2017-Nov-09 05:00N 36°17' E 014°13'611.5
2017-Nov-09 04:29N 36°20' E 014°06'611.5
2017-Nov-09 04:00N 36°21' E 013°60'611.7
2017-Nov-09 03:30N 36°23' E 013°53'  
2017-Nov-05 17:30N 35°55' W 005°16'2 4.3
2017-Nov-05 16:59N 35°54' W 005°18'0 0.0
2017-Nov-05 16:29N 35°54' W 005°18'0 0.0
2017-Nov-05 15:59N 35°54' W 005°18'0 0.0
2017-Nov-05 15:29N 35°54' W 005°18'0 0.0
2017-Nov-05 14:59N 35°54' W 005°18'0 0.0
2017-Nov-05 14:29N 35°54' W 005°18'1 1.6
2017-Nov-05 14:01N 35°54' W 005°19'5 9.0
2017-Nov-05 13:30N 35°57' W 005°23'26010.0
2017-Nov-04 11:33N 38°16' W 009°59'111.6
2017-Nov-04 11:26N 38°17' W 009°60'611.7
2017-Nov-04 10:54N 38°23' W 010°01'511.9
2017-Nov-04 10:30N 38°28' W 010°03'612.3
2017-Nov-04 10:00N 38°34' W 010°05'911.5
2017-Nov-04 09:15N 38°42' W 010°07'1411.6
2017-Nov-04 08:03N 38°56' W 010°07'111.5
2017-Nov-04 07:59N 38°57' W 010°07'  
2017-Oct-31 22:54N 43°43' W 008°08'611.9
2017-Oct-31 22:24N 43°47' W 008°02'512.3
2017-Oct-31 22:00N 43°49' W 007°56'611.7
2017-Oct-31 21:30N 43°50' W 007°48'612.4
2017-Oct-31 21:00N 43°50' W 007°39'612.2
2017-Oct-31 20:30N 43°50' W 007°31'712.7
2017-Oct-31 19:58N 43°49' W 007°21'6112.4
2017-Oct-31 15:02N 43°48' W 005°57'412.3
2017-Oct-31 14:44N 43°46' W 005°53'312.5
2017-Oct-31 14:27N 43°43' W 005°50'612.5
2017-Oct-31 13:58N 43°39' W 005°44'510.3
2017-Oct-31 13:30N 43°35' W 005°40'1 1.3
2017-Oct-31 12:47N 43°35' W 005°41'0 0.0
2017-Oct-31 02:37N 43°35' W 005°41'0 0.0
2017-Oct-31 02:19N 43°35' W 005°41'0 0.0
2017-Oct-30 17:55N 43°35' W 005°41'0 0.1
2017-Oct-30 17:29N 43°35' W 005°41'2 4.9
2017-Oct-30 16:59N 43°37' W 005°41'3 5.5
2017-Oct-30 16:26N 43°40' W 005°43'2 5.6
2017-Oct-30 16:00N 43°41' W 005°46'5 9.0
2017-Oct-30 15:30N 43°42' W 005°52'5 9.3
2017-Oct-30 14:58N 43°42' W 005°59'5 9.8
2017-Oct-30 14:28N 43°43' W 006°05'4810.2
2017-Oct-30 09:45N 43°48' W 007°12'310.1
2017-Oct-30 09:30N 43°48' W 007°15'510.3
2017-Oct-30 09:00N 43°48' W 007°22'510.3
2017-Oct-30 08:30N 43°48' W 007°29'510.3
2017-Oct-30 08:00N 43°49' W 007°36'5 9.9
2017-Oct-30 07:30N 43°49' W 007°43'  
Track history (hours):
 
Tides and Currents Weather Stations Pressure Air Temp Water Temp Dewpoint Dewpoint Depression Visibility Wind Speed Wind Dir Waves Ship Positions

BBC Bangkok

Last reported at 2017-Nov-09 07:24 UTC. Time now 2017-Nov-18 15:27 UTC.
Position N 36°09' E 014°46'.
Warning: this ship's position is 9 days out of date.

Length 128 m; draft 6.1 m.

Type: Cargo ship. MMSI: 305512000.

Date/timePositionNaut miles runAvg speedWind from/ knotsBaromVisibWave heightAir tempDewpointWater temp
2017-Nov-09 07:24N 36°09' E 014°46'511.6
2017-Nov-09 07:00N 36°10' E 014°41'611.7
2017-Nov-09 06:30N 36°12' E 014°34'611.7
2017-Nov-09 06:00N 36°14' E 014°27'611.8
2017-Nov-09 05:30N 36°15' E 014°20'611.7
2017-Nov-09 05:00N 36°17' E 014°13'611.5
2017-Nov-09 04:29N 36°20' E 014°06'611.5
2017-Nov-09 04:00N 36°21' E 013°60'611.7
2017-Nov-09 03:30N 36°23' E 013°53'  
2017-Nov-05 17:30N 35°55' W 005°16'2 4.3
2017-Nov-05 16:59N 35°54' W 005°18'0 0.0
2017-Nov-05 16:29N 35°54' W 005°18'0 0.0
2017-Nov-05 15:59N 35°54' W 005°18'0 0.0
2017-Nov-05 15:29N 35°54' W 005°18'0 0.0
2017-Nov-05 14:59N 35°54' W 005°18'0 0.0
2017-Nov-05 14:29N 35°54' W 005°18'1 1.6
2017-Nov-05 14:01N 35°54' W 005°19'5 9.0
2017-Nov-05 13:30N 35°57' W 005°23'26010.0
2017-Nov-04 11:33N 38°16' W 009°59'111.6
2017-Nov-04 11:26N 38°17' W 009°60'611.7
2017-Nov-04 10:54N 38°23' W 010°01'511.9
2017-Nov-04 10:30N 38°28' W 010°03'612.3
2017-Nov-04 10:00N 38°34' W 010°05'911.5
2017-Nov-04 09:15N 38°42' W 010°07'1411.6
2017-Nov-04 08:03N 38°56' W 010°07'111.5
2017-Nov-04 07:59N 38°57' W 010°07'  
2017-Oct-31 22:54N 43°43' W 008°08'611.9
2017-Oct-31 22:24N 43°47' W 008°02'512.3
2017-Oct-31 22:00N 43°49' W 007°56'611.7
2017-Oct-31 21:30N 43°50' W 007°48'612.4
2017-Oct-31 21:00N 43°50' W 007°39'612.2
2017-Oct-31 20:30N 43°50' W 007°31'712.7
2017-Oct-31 19:58N 43°49' W 007°21'6112.4
2017-Oct-31 15:02N 43°48' W 005°57'412.3
2017-Oct-31 14:44N 43°46' W 005°53'312.5
2017-Oct-31 14:27N 43°43' W 005°50'612.5
2017-Oct-31 13:58N 43°39' W 005°44'510.3
2017-Oct-31 13:30N 43°35' W 005°40'1 1.3
2017-Oct-31 12:47N 43°35' W 005°41'0 0.0
2017-Oct-31 02:37N 43°35' W 005°41'0 0.0
2017-Oct-31 02:19N 43°35' W 005°41'0 0.0
2017-Oct-30 17:55N 43°35' W 005°41'0 0.1
2017-Oct-30 17:29N 43°35' W 005°41'2 4.9
2017-Oct-30 16:59N 43°37' W 005°41'3 5.5
2017-Oct-30 16:26N 43°40' W 005°43'2 5.6
2017-Oct-30 16:00N 43°41' W 005°46'5 9.0
2017-Oct-30 15:30N 43°42' W 005°52'5 9.3
2017-Oct-30 14:58N 43°42' W 005°59'5 9.8
2017-Oct-30 14:28N 43°43' W 006°05'4810.2
2017-Oct-30 09:45N 43°48' W 007°12'310.1
2017-Oct-30 09:30N 43°48' W 007°15'510.3
2017-Oct-30 09:00N 43°48' W 007°22'510.3
2017-Oct-30 08:30N 43°48' W 007°29'510.3
2017-Oct-30 08:00N 43°49' W 007°36'5 9.9
2017-Oct-30 07:30N 43°49' W 007°43'  

Dump ship's entire track history